Time;durP1;ratioP1;P1;durP2;ratioP2;P2;SDS_P1;SDS_P2;PMS_P1;PMS_P2;Temp;Humidity;BMP_temperature;BMP_pressure;BME280_temperature;BME280_humidity;BME280_pressure;Samples;Min_cycle;Max_cycle;Signal;HPM_P1;HPM_P2
2022/04/08 00:02:15;;;;;;;;;;;7.00;99.90;;;;;;5038061;28;19963;-66
2022/04/08 00:04:40;;;;;;;;;;;6.90;99.90;;;;;;5038189;28;20285;-65
2022/04/08 00:07:06;;;;;;;;;;;6.80;99.90;;;;;;5035107;28;19921;-66
2022/04/08 00:09:31;;;;;;;;;;;6.70;99.90;;;;;;5038345;28;19909;-66
2022/04/08 00:11:57;;;;;;;;;;;6.70;99.90;;;;;;5037671;28;19916;-66
2022/04/08 00:14:23;;;;;;;;;;;6.60;99.90;;;;;;5038319;28;19913;-66
2022/04/08 00:16:49;;;;;;;;;;;6.50;99.90;;;;;;5037674;28;19917;-66
2022/04/08 00:19:14;;;;;;;;;;;6.50;99.90;;;;;;5037341;28;19917;-66
2022/04/08 00:21:40;;;;;;;;;;;6.50;99.90;;;;;;5035882;28;19991;-66
2022/04/08 00:24:07;;;;;;;;;;;6.50;99.90;;;;;;5036856;28;19948;-65
2022/04/08 00:26:32;;;;;;;;;;;6.50;99.90;;;;;;5038429;28;19994;-66
2022/04/08 00:28:58;;;;;;;;;;;6.40;99.90;;;;;;5038078;28;19980;-66
2022/04/08 00:31:23;;;;;;;;;;;6.40;99.90;;;;;;5038711;28;19917;-66
2022/04/08 00:33:48;;;;;;;;;;;6.50;99.90;;;;;;5037974;28;19924;-66
2022/04/08 00:36:14;;;;;;;;;;;6.50;99.90;;;;;;5038278;28;19997;-66
2022/04/08 00:38:39;;;;;;;;;;;6.50;99.90;;;;;;5036804;28;19921;-66
2022/04/08 00:41:05;;;;;;;;;;;6.40;99.90;;;;;;5037928;28;19955;-66
2022/04/08 00:43:37;;;;;;;;;;;6.40;99.90;;;;;;5037593;28;19917;-66
2022/04/08 00:46:03;;;;;;;;;;;6.40;99.90;;;;;;5038501;28;19979;-65
2022/04/08 00:48:29;;;;;;;;;;;6.40;99.90;;;;;;5037755;28;20011;-65
2022/04/08 00:50:55;;;;;;;;;;;6.30;99.90;;;;;;5037936;28;19984;-65
2022/04/08 00:53:21;;;;;;;;;;;6.30;99.90;;;;;;5037530;28;20284;-65
2022/04/08 00:55:47;;;;;;;;;;;6.30;99.90;;;;;;5035115;28;20010;-66
2022/04/08 00:58:13;;;;;;;;;;;6.20;99.90;;;;;;5036640;28;20313;-66
2022/04/08 01:00:39;;;;;;;;;;;6.20;99.90;;;;;;5037025;28;20381;-66
2022/04/08 01:03:05;;;;;;;;;;;6.20;99.90;;;;;;5037748;28;19967;-66
2022/04/08 01:05:31;;;;;;;;;;;6.10;99.90;;;;;;5037531;28;20188;-65
2022/04/08 01:07:56;;;;;;;;;;;6.20;99.90;;;;;;5037894;28;19919;-65
2022/04/08 01:10:22;;;;;;;;;;;6.10;99.90;;;;;;5037545;28;20317;-66
2022/04/08 01:12:49;;;;;;;;;;;6.10;99.90;;;;;;5037017;28;20357;-66
2022/04/08 01:15:18;;;;;;;;;;;6.10;99.90;;;;;;5034837;28;20076;-66
2022/04/08 01:17:44;;;;;;;;;;;6.10;99.90;;;;;;5037283;28;19913;-66
2022/04/08 01:20:10;;;;;;;;;;;6.10;99.90;;;;;;5037882;28;19920;-66
2022/04/08 01:22:36;;;;;;;;;;;6.10;99.90;;;;;;5036554;28;20298;-65
2022/04/08 01:25:02;;;;;;;;;;;6.10;99.90;;;;;;5035954;28;19921;-66
2022/04/08 01:27:28;;;;;;;;;;;6.20;99.90;;;;;;5037651;28;19912;-66
2022/04/08 01:29:54;;;;;;;;;;;6.20;99.90;;;;;;5038371;28;19920;-66
2022/04/08 01:32:20;;;;;;;;;;;6.20;99.90;;;;;;5040388;28;19924;-66
2022/04/08 01:34:45;;;;;;;;;;;6.30;99.90;;;;;;5041372;28;20273;-66
2022/04/08 01:37:11;;;;;;;;;;;6.30;99.90;;;;;;5041020;28;19921;-66
2022/04/08 01:39:37;;;;;;;;;;;6.30;99.90;;;;;;5039218;28;19920;-66
2022/04/08 01:42:03;;;;;;;;;;;6.30;99.90;;;;;;5039621;28;19928;-66
2022/04/08 01:44:28;;;;;;;;;;;6.30;99.90;;;;;;5040834;28;20289;-66
2022/04/08 01:46:54;;;;;;;;;;;6.20;99.90;;;;;;5040484;28;19913;-66
2022/04/08 01:49:19;;;;;;;;;;;6.20;99.90;;;;;;5040516;28;19917;-66
2022/04/08 01:51:45;;;;;;;;;;;6.20;99.90;;;;;;5040463;28;19916;-66
2022/04/08 01:54:10;;;;;;;;;;;6.20;99.90;;;;;;5040156;28;19909;-66
2022/04/08 01:56:35;;;;;;;;;;;6.20;99.90;;;;;;5038161;28;19920;-66
2022/04/08 01:59:01;;;;;;;;;;;6.20;99.90;;;;;;5040633;28;19915;-66
2022/04/08 02:01:26;;;;;;;;;;;6.20;99.90;;;;;;5039927;28;19924;-66
2022/04/08 02:03:52;;;;;;;;;;;6.30;99.90;;;;;;5040702;28;19917;-66
2022/04/08 02:06:17;;;;;;;;;;;6.30;99.90;;;;;;5039196;28;19921;-66
2022/04/08 02:08:43;;;;;;;;;;;6.20;99.90;;;;;;5040612;28;19909;-66
2022/04/08 02:11:08;;;;;;;;;;;6.20;99.90;;;;;;5036129;28;20378;-66
2022/04/08 02:13:33;;;;;;;;;;;6.20;99.90;;;;;;5040515;28;19948;-66
2022/04/08 02:15:59;;;;;;;;;;;6.20;99.90;;;;;;5040040;28;19917;-66
2022/04/08 02:18:24;;;;;;;;;;;6.10;99.90;;;;;;5040060;28;19944;-66
2022/04/08 02:20:51;;;;;;;;;;;6.10;99.90;;;;;;5040262;28;20381;-66
2022/04/08 02:23:16;;;;;;;;;;;6.10;99.90;;;;;;5040510;28;19921;-66
2022/04/08 02:25:42;;;;;;;;;;;6.10;99.90;;;;;;5037592;28;19920;-65
2022/04/08 02:28:07;;;;;;;;;;;6.10;99.90;;;;;;5041056;28;19908;-66
2022/04/08 02:30:33;;;;;;;;;;;6.10;99.90;;;;;;5039898;28;19927;-66
2022/04/08 02:33:01;;;;;;;;;;;6.00;99.90;;;;;;5040944;28;20040;-66
2022/04/08 02:35:28;;;;;;;;;;;6.10;99.90;;;;;;5040376;28;19927;-66
2022/04/08 02:37:54;;;;;;;;;;;6.00;99.90;;;;;;5036270;28;20272;-66
2022/04/08 02:40:19;;;;;;;;;;;6.00;99.90;;;;;;5039334;28;19917;-66
2022/04/08 02:42:45;;;;;;;;;;;6.00;99.90;;;;;;5039428;28;19954;-66
2022/04/08 02:45:10;;;;;;;;;;;6.00;99.90;;;;;;5039302;28;20385;-66
2022/04/08 02:47:39;;;;;;;;;;;6.00;99.90;;;;;;5039465;28;20389;-66
2022/04/08 02:50:05;;;;;;;;;;;6.00;99.90;;;;;;5039195;28;19917;-66
2022/04/08 02:52:30;;;;;;;;;;;6.00;99.90;;;;;;5037955;28;20000;-66
2022/04/08 02:54:56;;;;;;;;;;;5.90;99.90;;;;;;5039141;28;19912;-65
2022/04/08 02:57:21;;;;;;;;;;;6.00;99.90;;;;;;5039523;28;19923;-66
2022/04/08 02:59:46;;;;;;;;;;;6.00;99.90;;;;;;5039829;28;19920;-66
2022/04/08 03:02:12;;;;;;;;;;;6.00;99.90;;;;;;5039007;28;20254;-66
2022/04/08 03:04:37;;;;;;;;;;;6.00;99.90;;;;;;5039524;28;19924;-66
2022/04/08 03:07:03;;;;;;;;;;;6.00;99.90;;;;;;5039396;28;19917;-66
2022/04/08 03:09:29;;;;;;;;;;;6.00;99.90;;;;;;5037872;28;19913;-66
2022/04/08 03:11:54;;;;;;;;;;;6.00;99.90;;;;;;5037698;28;19924;-65
2022/04/08 03:14:20;;;;;;;;;;;6.00;99.90;;;;;;5039125;28;19944;-66
2022/04/08 03:16:45;;;;;;;;;;;6.00;99.90;;;;;;5038627;28;20284;-66
2022/04/08 03:19:11;;;;;;;;;;;6.00;99.90;;;;;;5039768;28;19996;-66
2022/04/08 03:21:37;;;;;;;;;;;6.00;99.90;;;;;;5039031;28;20399;-66
2022/04/08 03:24:04;;;;;;;;;;;6.00;99.90;;;;;;5037695;28;19921;-66
2022/04/08 03:26:29;;;;;;;;;;;6.00;99.90;;;;;;5038836;28;20313;-66
2022/04/08 03:28:55;;;;;;;;;;;6.00;99.90;;;;;;5039814;28;19920;-66
2022/04/08 03:31:20;;;;;;;;;;;5.90;99.90;;;;;;5038464;28;19920;-66
2022/04/08 03:33:46;;;;;;;;;;;5.90;99.90;;;;;;5038826;28;19913;-66
2022/04/08 03:36:11;;;;;;;;;;;5.90;99.90;;;;;;5039098;28;19997;-67
2022/04/08 03:38:37;;;;;;;;;;;5.90;99.90;;;;;;5036771;28;19913;-66
2022/04/08 03:41:02;;;;;;;;;;;5.90;99.90;;;;;;5038140;28;19913;-66
2022/04/08 03:43:28;;;;;;;;;;;5.80;99.90;;;;;;5039171;28;19920;-66
2022/04/08 03:45:53;;;;;;;;;;;5.80;99.90;;;;;;5038430;28;19917;-66
2022/04/08 03:48:19;;;;;;;;;;;5.80;99.90;;;;;;5038407;28;19913;-66
2022/04/08 03:50:44;;;;;;;;;;;5.90;99.90;;;;;;5038674;28;20031;-66
2022/04/08 03:53:12;;;;;;;;;;;5.80;99.90;;;;;;5038785;28;19917;-66
2022/04/08 03:55:38;;;;;;;;;;;5.90;99.90;;;;;;5037600;28;20340;-66
2022/04/08 03:58:03;;;;;;;;;;;5.80;99.90;;;;;;5036249;28;19928;-66
2022/04/08 04:00:29;;;;;;;;;;;5.80;99.90;;;;;;5034446;28;20170;-67
2022/04/08 04:02:54;;;;;;;;;;;5.90;99.90;;;;;;5033453;28;20031;-66
2022/04/08 04:05:20;;;;;;;;;;;5.80;99.90;;;;;;5034562;28;19925;-66
2022/04/08 04:07:45;;;;;;;;;;;5.80;99.90;;;;;;5037842;28;19908;-66
2022/04/08 04:10:11;;;;;;;;;;;5.80;99.90;;;;;;5032092;28;19927;-66
2022/04/08 04:12:37;;;;;;;;;;;5.90;99.90;;;;;;5036991;28;20386;-66
2022/04/08 04:15:04;;;;;;;;;;;5.80;99.90;;;;;;5038049;28;19917;-66
2022/04/08 04:17:30;;;;;;;;;;;5.80;99.90;;;;;;5037779;28;19952;-66
2022/04/08 04:19:55;;;;;;;;;;;5.80;99.90;;;;;;5035490;28;20412;-66
2022/04/08 04:22:21;;;;;;;;;;;5.90;99.90;;;;;;5036071;28;20362;-66
2022/04/08 04:24:46;;;;;;;;;;;5.80;99.90;;;;;;5032720;28;19955;-66
2022/04/08 04:27:11;;;;;;;;;;;5.80;99.90;;;;;;5035113;28;20401;-66
2022/04/08 04:29:37;;;;;;;;;;;5.90;99.90;;;;;;5031461;28;19924;-66
2022/04/08 04:32:05;;;;;;;;;;;5.80;99.90;;;;;;5034594;28;19943;-66
2022/04/08 04:34:32;;;;;;;;;;;5.80;99.90;;;;;;5031891;28;19913;-66
2022/04/08 04:36:58;;;;;;;;;;;5.80;99.90;;;;;;5036971;28;19920;-66
2022/04/08 04:39:23;;;;;;;;;;;5.70;99.90;;;;;;5035648;28;19917;-67
2022/04/08 04:41:49;;;;;;;;;;;5.70;99.90;;;;;;5035738;28;19913;-67
2022/04/08 04:44:14;;;;;;;;;;;5.70;99.90;;;;;;5029251;28;19943;-67
2022/04/08 04:46:39;;;;;;;;;;;5.70;99.90;;;;;;5034534;28;19912;-66
2022/04/08 04:49:05;;;;;;;;;;;5.70;99.90;;;;;;5032093;28;19947;-66
2022/04/08 04:51:30;;;;;;;;;;;5.70;99.90;;;;;;5034135;28;19921;-66
2022/04/08 04:53:57;;;;;;;;;;;5.60;99.90;;;;;;5031434;28;19945;-66
2022/04/08 04:56:22;;;;;;;;;;;5.60;99.90;;;;;;5034629;28;20441;-66
2022/04/08 04:58:48;;;;;;;;;;;5.60;99.90;;;;;;5033785;28;20416;-66
2022/04/08 05:01:13;;;;;;;;;;;5.50;99.90;;;;;;5035184;28;19916;-66
2022/04/08 05:03:39;;;;;;;;;;;5.50;99.90;;;;;;5033524;28;19924;-67
2022/04/08 05:06:04;;;;;;;;;;;5.40;99.90;;;;;;5038779;28;19916;-67
2022/04/08 05:08:29;;;;;;;;;;;5.30;99.90;;;;;;5037160;28;19929;-67
2022/04/08 05:10:55;;;;;;;;;;;5.10;99.90;;;;;;5037400;28;19917;-67
2022/04/08 05:13:20;;;;;;;;;;;4.80;99.90;;;;;;5038416;28;20305;-67
2022/04/08 05:15:46;;;;;;;;;;;4.60;99.90;;;;;;5036814;28;19912;-68
2022/04/08 05:18:11;;;;;;;;;;;4.50;99.90;;;;;;5038118;28;20266;-68
2022/04/08 05:20:37;;;;;;;;;;;4.40;99.90;;;;;;5040109;28;20011;-68
2022/04/08 05:23:03;;;;;;;;;;;4.30;99.90;;;;;;5037336;28;20023;-69
2022/04/08 05:25:28;;;;;;;;;;;4.10;99.90;;;;;;5038909;28;19921;-67
2022/04/08 05:27:54;;;;;;;;;;;4.00;99.90;;;;;;5038109;28;20460;-67
2022/04/08 05:30:19;;;;;;;;;;;4.00;99.90;;;;;;5034730;28;20413;-68
2022/04/08 05:32:48;;;;;;;;;;;4.00;99.90;;;;;;5034501;28;20382;-69
2022/04/08 05:35:15;;;;;;;;;;;4.00;99.90;;;;;;5038898;28;19921;-66
2022/04/08 05:37:42;;;;;;;;;;;4.10;99.90;;;;;;5038669;28;19924;-66
2022/04/08 05:40:11;;;;;;;;;;;4.10;99.90;;;;;;5037654;28;19943;-67
2022/04/08 05:42:36;;;;;;;;;;;4.20;99.90;;;;;;5022730;28;19909;-66
2022/04/08 05:45:02;;;;;;;;;;;4.30;99.90;;;;;;5038474;28;19924;-66
2022/04/08 05:47:28;;;;;;;;;;;4.30;99.90;;;;;;5036820;28;19913;-66
2022/04/08 05:49:53;;;;;;;;;;;4.30;99.90;;;;;;5038137;28;19917;-67
2022/04/08 05:52:19;;;;;;;;;;;4.30;99.90;;;;;;5038200;28;19913;-67
2022/04/08 05:54:44;;;;;;;;;;;4.40;99.90;;;;;;5039629;28;19956;-67
2022/04/08 05:57:09;;;;;;;;;;;4.40;99.90;;;;;;5039988;28;20521;-67
2022/04/08 05:59:37;;;;;;;;;;;4.40;99.90;;;;;;5040828;28;19917;-67
2022/04/08 06:02:04;;;;;;;;;;;4.40;99.90;;;;;;5038654;28;19923;-67
2022/04/08 06:04:29;;;;;;;;;;;4.50;99.90;;;;;;5038001;28;19944;-66
2022/04/08 06:06:55;;;;;;;;;;;4.60;99.90;;;;;;5035618;28;19920;-68
2022/04/08 06:09:20;;;;;;;;;;;4.70;99.90;;;;;;5036267;28;19925;-68
2022/04/08 06:11:46;;;;;;;;;;;4.80;99.90;;;;;;5040196;28;19913;-67
2022/04/08 06:14:11;;;;;;;;;;;4.90;99.90;;;;;;5040446;28;19912;-68
2022/04/08 06:16:37;;;;;;;;;;;5.00;99.90;;;;;;5034004;28;19921;-68
2022/04/08 06:19:02;;;;;;;;;;;5.00;99.90;;;;;;5037575;28;19917;-68
2022/04/08 06:21:28;;;;;;;;;;;5.00;99.90;;;;;;5034418;28;19921;-68
2022/04/08 06:23:53;;;;;;;;;;;5.10;99.90;;;;;;5032033;28;19962;-71
2022/04/08 06:26:18;;;;;;;;;;;5.10;99.90;;;;;;5034680;28;20019;-70
2022/04/08 06:28:44;;;;;;;;;;;5.20;99.90;;;;;;5034062;28;19963;-69
2022/04/08 06:31:10;;;;;;;;;;;5.30;99.90;;;;;;5031013;28;19921;-73
2022/04/08 06:33:35;;;;;;;;;;;5.40;99.90;;;;;;5037312;28;19913;-76
2022/04/08 06:36:01;;;;;;;;;;;5.50;99.90;;;;;;5034279;28;20332;-77
2022/04/08 06:38:26;;;;;;;;;;;5.70;99.90;;;;;;5037525;28;19920;-75
2022/04/08 06:40:52;;;;;;;;;;;5.80;99.90;;;;;;5036606;28;19940;-77
2022/04/08 06:43:17;;;;;;;;;;;5.90;99.90;;;;;;5035895;28;19965;-75
2022/04/08 06:45:42;;;;;;;;;;;6.00;99.90;;;;;;5033291;28;19973;-72
2022/04/08 06:48:08;;;;;;;;;;;6.00;99.90;;;;;;5036819;28;19952;-73
2022/04/08 06:50:33;;;;;;;;;;;6.00;99.90;;;;;;5035000;28;19955;-78
2022/04/08 06:53:00;;;;;;;;;;;6.00;99.90;;;;;;5037303;28;19913;-74
2022/04/08 06:55:26;;;;;;;;;;;6.00;99.90;;;;;;5034306;28;19923;-72
2022/04/08 06:57:52;;;;;;;;;;;6.00;99.90;;;;;;5033871;28;20353;-72
2022/04/08 07:00:17;;;;;;;;;;;6.00;99.90;;;;;;5036420;28;19913;-70
2022/04/08 07:02:43;;;;;;;;;;;6.00;99.90;;;;;;5038372;28;20012;-69
2022/04/08 07:05:08;;;;;;;;;;;6.00;99.90;;;;;;5038560;28;20007;-70
2022/04/08 07:07:34;;;;;;;;;;;6.00;99.90;;;;;;5037652;28;20362;-72
2022/04/08 07:10:00;;;;;;;;;;;6.00;99.90;;;;;;5037817;28;19921;-75
2022/04/08 07:12:26;;;;;;;;;;;6.00;99.90;;;;;;5037099;28;19995;-73
2022/04/08 07:14:52;;;;;;;;;;;6.00;99.90;;;;;;5035536;28;19912;-70
2022/04/08 07:17:17;;;;;;;;;;;6.00;99.90;;;;;;5034317;28;20435;-70
2022/04/08 07:19:42;;;;;;;;;;;6.10;99.90;;;;;;5035866;28;20400;-70
2022/04/08 07:22:08;;;;;;;;;;;6.10;99.90;;;;;;5032921;28;19966;-70
2022/04/08 07:24:33;;;;;;;;;;;6.10;99.90;;;;;;5036376;28;19973;-71
2022/04/08 07:26:59;;;;;;;;;;;6.00;99.90;;;;;;5034828;28;19967;-70
2022/04/08 07:29:24;;;;;;;;;;;6.00;99.90;;;;;;5034057;28;20440;-70
2022/04/08 07:31:50;;;;;;;;;;;6.10;99.90;;;;;;5030747;28;20316;-72
2022/04/08 07:34:15;;;;;;;;;;;6.10;99.90;;;;;;5036773;28;20381;-70
2022/04/08 07:36:40;;;;;;;;;;;6.20;99.90;;;;;;5034282;28;19913;-70
2022/04/08 07:39:06;;;;;;;;;;;6.20;99.90;;;;;;5036276;28;20409;-67
2022/04/08 07:41:31;;;;;;;;;;;6.20;99.90;;;;;;5034239;28;19981;-68
2022/04/08 07:43:57;;;;;;;;;;;6.10;99.90;;;;;;5034616;28;20305;-72
2022/04/08 07:46:22;;;;;;;;;;;5.70;99.90;;;;;;5034174;28;19913;-69
2022/04/08 07:48:48;;;;;;;;;;;5.50;99.90;;;;;;5033910;28;20406;-70
2022/04/08 07:51:13;;;;;;;;;;;5.40;99.90;;;;;;5035131;28;20263;-68
2022/04/08 07:53:39;;;;;;;;;;;5.30;99.90;;;;;;5035964;28;19913;-68
2022/04/08 07:56:04;;;;;;;;;;;5.30;99.90;;;;;;5034183;28;19928;-68
2022/04/08 07:58:29;;;;;;;;;;;5.30;99.90;;;;;;5033145;28;19916;-68
2022/04/08 08:00:55;;;;;;;;;;;5.30;99.90;;;;;;5033596;28;19916;-68
2022/04/08 08:03:21;;;;;;;;;;;5.40;99.90;;;;;;5033180;28;20386;-69
2022/04/08 08:05:47;;;;;;;;;;;5.60;99.90;;;;;;4971422;28;1747869;-69
2022/04/08 08:08:12;;;;;;;;;;;5.70;99.90;;;;;;5035094;28;19919;-70
2022/04/08 08:10:42;;;;;;;;;;;5.80;99.90;;;;;;5035674;28;19917;-71
2022/04/08 08:13:07;;;;;;;;;;;5.90;99.90;;;;;;5033656;28;19966;-72
2022/04/08 08:15:33;;;;;;;;;;;6.00;99.90;;;;;;5035632;28;19921;-73
2022/04/08 08:17:59;;;;;;;;;;;6.20;99.90;;;;;;5034012;28;19994;-73
2022/04/08 08:20:25;;;;;;;;;;;6.30;99.90;;;;;;5034476;28;20271;-72
2022/04/08 08:22:50;;;;;;;;;;;6.40;99.90;;;;;;5032017;28;19971;-73
2022/04/08 08:25:16;;;;;;;;;;;6.50;99.90;;;;;;5035377;28;20353;-72
2022/04/08 08:27:46;;;;;;;;;;;6.60;99.90;;;;;;5036320;28;20352;-70
2022/04/08 08:30:13;;;;;;;;;;;6.70;99.90;;;;;;5033280;28;20358;-70
2022/04/08 08:32:39;;;;;;;;;;;6.80;99.90;;;;;;5032693;28;19919;-71
2022/04/08 08:35:07;;;;;;;;;;;6.90;99.90;;;;;;5033615;28;19920;-70
2022/04/08 08:37:32;;;;;;;;;;;7.10;99.90;;;;;;5034338;28;19913;-70
2022/04/08 08:39:58;;;;;;;;;;;7.30;99.90;;;;;;5032907;28;20328;-68
2022/04/08 08:42:24;;;;;;;;;;;7.50;99.90;;;;;;5035852;28;20366;-69
2022/04/08 08:44:50;;;;;;;;;;;7.60;99.90;;;;;;5039687;28;19924;-69
2022/04/08 08:47:17;;;;;;;;;;;7.70;99.90;;;;;;5037461;28;19921;-69
2022/04/08 08:49:45;;;;;;;;;;;7.80;99.90;;;;;;5036596;28;19952;-69
2022/04/08 08:52:10;;;;;;;;;;;7.90;99.90;;;;;;5040939;28;20023;-69
2022/04/08 08:54:36;;;;;;;;;;;8.10;99.90;;;;;;5037842;28;19932;-67
2022/04/08 08:57:02;;;;;;;;;;;8.20;99.90;;;;;;5040272;28;19916;-68
2022/04/08 08:59:29;;;;;;;;;;;8.40;98.90;;;;;;5034450;28;19913;-69
2022/04/08 09:02:01;;;;;;;;;;;8.40;98.40;;;;;;5037244;28;20008;-69
2022/04/08 09:04:27;;;;;;;;;;;8.40;97.80;;;;;;5019563;28;20404;-70
2022/04/08 09:06:52;;;;;;;;;;;8.30;98.20;;;;;;5039173;28;20015;-71
2022/04/08 09:09:27;;;;;;;;;;;8.30;98.00;;;;;;5036007;28;19955;-70
2022/04/08 09:11:52;;;;;;;;;;;8.20;98.10;;;;;;5037055;28;20008;-72
2022/04/08 09:14:25;;;;;;;;;;;8.20;98.10;;;;;;5036046;28;20019;-72
2022/04/08 09:16:58;;;;;;;;;;;8.10;98.00;;;;;;5039082;28;20027;-69
2022/04/08 09:19:24;;;;;;;;;;;8.10;97.80;;;;;;5038505;28;19932;-68
2022/04/08 09:21:50;;;;;;;;;;;8.00;98.60;;;;;;5037468;28;19913;-69
2022/04/08 09:24:16;;;;;;;;;;;8.00;98.30;;;;;;5034022;28;19921;-69
2022/04/08 09:26:41;;;;;;;;;;;7.90;98.20;;;;;;5036447;28;20412;-69
2022/04/08 09:29:07;;;;;;;;;;;7.80;98.30;;;;;;5035877;28;19996;-71
2022/04/08 09:31:32;;;;;;;;;;;7.70;98.20;;;;;;5037039;28;19916;-71
2022/04/08 09:33:57;;;;;;;;;;;7.70;98.60;;;;;;5037623;28;19924;-73
2022/04/08 09:36:30;;;;;;;;;;;7.80;98.20;;;;;;5037037;28;19920;-71
2022/04/08 09:38:56;;;;;;;;;;;8.00;98.20;;;;;;5036446;28;20289;-70
2022/04/08 09:41:23;;;;;;;;;;;8.10;98.10;;;;;;5036057;28;19921;-69
2022/04/08 09:43:49;;;;;;;;;;;8.20;97.00;;;;;;5037388;28;19925;-70
2022/04/08 09:46:19;;;;;;;;;;;8.20;97.00;;;;;;5036429;28;20936;-70
2022/04/08 09:48:45;;;;;;;;;;;8.20;96.80;;;;;;5034876;28;20401;-70
2022/04/08 09:51:15;;;;;;;;;;;8.10;96.90;;;;;;5038034;28;19917;-68
2022/04/08 09:53:41;;;;;;;;;;;8.10;96.50;;;;;;5038106;28;19924;-68
2022/04/08 09:56:09;;;;;;;;;;;8.00;96.30;;;;;;5038977;28;19921;-70
2022/04/08 09:58:36;;;;;;;;;;;8.00;96.40;;;;;;5040929;28;19996;-70
2022/04/08 10:01:02;;;;;;;;;;;7.90;96.30;;;;;;5038340;28;19916;-69
2022/04/08 10:03:27;;;;;;;;;;;7.90;96.60;;;;;;5036780;28;19932;-70
2022/04/08 10:05:53;;;;;;;;;;;7.90;96.70;;;;;;5037478;28;19917;-71
2022/04/08 10:08:19;;;;;;;;;;;7.80;96.50;;;;;;5036898;28;19921;-67
2022/04/08 10:10:55;;;;;;;;;;;7.80;96.50;;;;;;5040579;28;19917;-73
2022/04/08 10:13:21;;;;;;;;;;;7.90;96.50;;;;;;5035420;28;19958;-69
2022/04/08 10:15:52;;;;;;;;;;;8.00;96.90;;;;;;5035384;28;19921;-70
2022/04/08 10:18:17;;;;;;;;;;;8.20;96.80;;;;;;5035946;28;20364;-71
2022/04/08 10:20:44;;;;;;;;;;;8.30;96.90;;;;;;5035912;28;19994;-70
2022/04/08 10:23:11;;;;;;;;;;;8.40;96.40;;;;;;5035067;28;19913;-67
2022/04/08 10:25:37;;;;;;;;;;;8.50;96.40;;;;;;5033901;28;20010;-71
2022/04/08 10:28:03;;;;;;;;;;;8.50;96.30;;;;;;5039550;28;19912;-71
2022/04/08 10:30:32;;;;;;;;;;;8.60;96.40;;;;;;5034436;28;19914;-71
2022/04/08 10:32:58;;;;;;;;;;;8.70;96.30;;;;;;5034253;28;20503;-70
2022/04/08 10:35:24;;;;;;;;;;;8.70;96.30;;;;;;5036739;28;19914;-70
2022/04/08 10:37:59;;;;;;;;;;;8.80;96.10;;;;;;5033717;28;20336;-70
2022/04/08 10:40:29;;;;;;;;;;;8.70;95.60;;;;;;5032482;28;19917;-71
2022/04/08 10:43:01;;;;;;;;;;;8.70;95.90;;;;;;5038308;28;19921;-71
2022/04/08 10:45:26;;;;;;;;;;;8.70;96.00;;;;;;5033325;28;20000;-70
2022/04/08 10:47:52;;;;;;;;;;;8.60;96.00;;;;;;5037131;28;20071;-66
2022/04/08 10:50:27;;;;;;;;;;;8.50;95.90;;;;;;5037582;28;20004;-67
2022/04/08 10:53:03;;;;;;;;;;;8.50;94.80;;;;;;5036553;28;19955;-67
2022/04/08 10:55:29;;;;;;;;;;;8.40;95.20;;;;;;5034583;28;19917;-67
2022/04/08 10:57:56;;;;;;;;;;;8.40;95.20;;;;;;5036752;28;20335;-67
2022/04/08 11:00:22;;;;;;;;;;;8.50;95.20;;;;;;5033958;28;20972;-67
2022/04/08 11:02:47;;;;;;;;;;;8.50;94.10;;;;;;5035069;28;19963;-68
2022/04/08 11:05:14;;;;;;;;;;;8.60;94.00;;;;;;5030669;28;19921;-67
2022/04/08 11:07:40;;;;;;;;;;;8.70;93.50;;;;;;5035447;28;20004;-67
2022/04/08 11:10:08;;;;;;;;;;;8.80;92.50;;;;;;5034224;28;20055;-68
2022/04/08 11:12:41;;;;;;;;;;;9.00;92.10;;;;;;5033275;28;19916;-68
2022/04/08 11:15:11;;;;;;;;;;;9.20;92.00;;;;;;5038761;28;19949;-67
2022/04/08 11:17:37;;;;;;;;;;;9.30;89.80;;;;;;5039879;28;19909;-68
2022/04/08 11:20:04;;;;;;;;;;;9.40;90.00;;;;;;5039699;28;19955;-68
2022/04/08 11:22:40;;;;;;;;;;;9.50;90.60;;;;;;5038957;28;20342;-68
2022/04/08 11:25:06;;;;;;;;;;;9.60;88.40;;;;;;5037836;28;20042;-68
2022/04/08 11:27:32;;;;;;;;;;;9.80;89.10;;;;;;5036768;28;19920;-68
2022/04/08 11:29:57;;;;;;;;;;;9.90;87.90;;;;;;5037876;28;19915;-67
2022/04/08 11:32:28;;;;;;;;;;;10.10;85.30;;;;;;5037409;28;20005;-68
2022/04/08 11:34:55;;;;;;;;;;;10.10;84.70;;;;;;5038119;28;20385;-67
2022/04/08 11:37:27;;;;;;;;;;;10.10;83.50;;;;;;5038093;28;20374;-68
2022/04/08 11:39:59;;;;;;;;;;;9.90;81.40;;;;;;5038874;28;19912;-67
2022/04/08 11:42:25;;;;;;;;;;;9.80;82.90;;;;;;5038421;28;20454;-67
2022/04/08 11:44:51;;;;;;;;;;;9.50;82.90;;;;;;5036855;28;19955;-68
2022/04/08 11:47:17;;;;;;;;;;;9.40;84.30;;;;;;5037737;28;19956;-67
2022/04/08 11:49:43;;;;;;;;;;;9.40;81.90;;;;;;5038423;28;19920;-67
2022/04/08 11:52:08;;;;;;;;;;;9.30;85.50;;;;;;5039085;28;19909;-67
2022/04/08 11:54:37;;;;;;;;;;;9.30;88.50;;;;;;5039470;28;19913;-67
2022/04/08 11:57:05;;;;;;;;;;;9.30;91.30;;;;;;5039237;28;19908;-68
2022/04/08 11:59:30;;;;;;;;;;;9.20;92.30;;;;;;5038858;28;19932;-67
2022/04/08 12:01:59;;;;;;;;;;;9.20;92.80;;;;;;5038003;28;19966;-67
2022/04/08 12:04:25;;;;;;;;;;;9.20;92.60;;;;;;5038141;28;19971;-67
2022/04/08 12:06:50;;;;;;;;;;;9.20;92.40;;;;;;5039108;28;20316;-67
2022/04/08 12:09:22;;;;;;;;;;;9.30;92.90;;;;;;5039121;28;20407;-68
2022/04/08 12:11:48;;;;;;;;;;;9.30;92.70;;;;;;5038757;28;19913;-68
2022/04/08 12:14:14;;;;;;;;;;;9.40;92.80;;;;;;5038810;28;19974;-67
2022/04/08 12:16:40;;;;;;;;;;;9.40;93.20;;;;;;5038909;28;19916;-67
2022/04/08 12:19:08;;;;;;;;;;;9.60;93.60;;;;;;5036780;28;20409;-67
2022/04/08 12:21:34;;;;;;;;;;;9.70;93.10;;;;;;5038835;28;19920;-68
2022/04/08 12:24:01;;;;;;;;;;;9.90;93.20;;;;;;5038296;28;19924;-68
2022/04/08 12:26:34;;;;;;;;;;;10.10;92.20;;;;;;5038201;28;19916;-68
2022/04/08 12:29:07;;;;;;;;;;;10.20;91.60;;;;;;5038389;28;19968;-67
2022/04/08 12:31:33;;;;;;;;;;;10.30;89.00;;;;;;5038382;28;19909;-68
2022/04/08 12:34:01;;;;;;;;;;;10.40;90.00;;;;;;5038170;28;20288;-67
2022/04/08 12:36:27;;;;;;;;;;;10.40;87.50;;;;;;5036369;28;19917;-68
2022/04/08 12:38:52;;;;;;;;;;;10.50;90.10;;;;;;5038031;28;19931;-67
2022/04/08 12:41:18;;;;;;;;;;;10.60;87.30;;;;;;5037766;28;20125;-68
2022/04/08 12:43:43;;;;;;;;;;;10.70;83.80;;;;;;5037765;28;20285;-67
2022/04/08 12:46:08;;;;;;;;;;;10.70;76.90;;;;;;5037443;28;19960;-68
2022/04/08 12:48:34;;;;;;;;;;;10.60;74.60;;;;;;5038803;28;20008;-67
2022/04/08 12:50:59;;;;;;;;;;;10.50;76.50;;;;;;5037600;28;20030;-68
2022/04/08 12:53:29;;;;;;;;;;;10.60;72.70;;;;;;5038677;28;19916;-67
2022/04/08 12:55:55;;;;;;;;;;;10.60;73.50;;;;;;5038517;28;20003;-68
2022/04/08 12:58:21;;;;;;;;;;;10.60;70.70;;;;;;5038752;28;19908;-67
2022/04/08 13:00:47;;;;;;;;;;;10.50;68.40;;;;;;5038255;28;19936;-67
2022/04/08 13:03:12;;;;;;;;;;;10.40;66.10;;;;;;5038362;28;20281;-67
2022/04/08 13:05:38;;;;;;;;;;;10.40;67.20;;;;;;5038222;28;19927;-67
2022/04/08 13:08:03;;;;;;;;;;;10.30;68.00;;;;;;5036957;28;19920;-68
2022/04/08 13:10:29;;;;;;;;;;;10.20;66.70;;;;;;5037921;28;20259;-67
2022/04/08 13:12:54;;;;;;;;;;;10.20;65.30;;;;;;5037924;28;20411;-67
2022/04/08 13:15:19;;;;;;;;;;;10.10;67.70;;;;;;5038017;28;19908;-67
2022/04/08 13:17:46;;;;;;;;;;;10.10;68.80;;;;;;5038077;28;19915;-67
2022/04/08 13:20:15;;;;;;;;;;;10.10;70.00;;;;;;5037754;28;19920;-67
2022/04/08 13:22:41;;;;;;;;;;;10.10;68.70;;;;;;5037528;28;19913;-68
2022/04/08 13:25:07;;;;;;;;;;;10.10;70.30;;;;;;5037584;28;19913;-67
2022/04/08 13:27:32;;;;;;;;;;;10.00;69.00;;;;;;5037688;28;19909;-67
2022/04/08 13:29:57;;;;;;;;;;;10.00;67.20;;;;;;5041590;28;19955;-68
2022/04/08 13:32:23;;;;;;;;;;;10.00;69.70;;;;;;5040894;28;19935;-67
2022/04/08 13:34:48;;;;;;;;;;;10.00;69.80;;;;;;5041378;28;19909;-68
2022/04/08 13:37:14;;;;;;;;;;;10.10;69.30;;;;;;5041140;28;19909;-67
2022/04/08 13:39:40;;;;;;;;;;;10.20;70.20;;;;;;5041168;28;19917;-68
2022/04/08 13:42:06;;;;;;;;;;;10.30;70.60;;;;;;5039277;28;20342;-68
2022/04/08 13:44:33;;;;;;;;;;;10.30;70.80;;;;;;5040058;28;19924;-67
2022/04/08 13:46:59;;;;;;;;;;;10.40;68.60;;;;;;5041436;28;19913;-68
2022/04/08 13:49:25;;;;;;;;;;;10.50;68.40;;;;;;5041971;28;19923;-67
2022/04/08 13:51:51;;;;;;;;;;;10.50;68.00;;;;;;5041532;28;19963;-67
2022/04/08 13:54:16;;;;;;;;;;;10.60;69.10;;;;;;5041518;28;19952;-68
2022/04/08 13:56:42;;;;;;;;;;;10.60;66.80;;;;;;5040763;28;19971;-67
2022/04/08 13:59:07;;;;;;;;;;;10.60;66.70;;;;;;5040374;28;19913;-67
2022/04/08 14:01:33;;;;;;;;;;;10.60;66.40;;;;;;5041085;28;19923;-67
2022/04/08 14:03:59;;;;;;;;;;;10.70;67.30;;;;;;5041091;28;19923;-67
2022/04/08 14:06:24;;;;;;;;;;;10.70;65.90;;;;;;5040970;28;19917;-67
2022/04/08 14:08:50;;;;;;;;;;;10.80;66.30;;;;;;5040953;28;19913;-67
2022/04/08 14:11:15;;;;;;;;;;;10.80;64.20;;;;;;5040736;28;19912;-67
2022/04/08 14:13:40;;;;;;;;;;;10.80;65.60;;;;;;5040832;28;20336;-67
2022/04/08 14:16:06;;;;;;;;;;;10.70;64.20;;;;;;5039557;28;19912;-68
2022/04/08 14:18:31;;;;;;;;;;;10.70;64.80;;;;;;5040147;28;19910;-67
2022/04/08 14:20:57;;;;;;;;;;;10.70;64.90;;;;;;5040624;28;20092;-67
2022/04/08 14:23:22;;;;;;;;;;;10.60;65.50;;;;;;5040332;28;19999;-67